Terminal Aerodrome Forecast
Issued by NWS Corpus Christi, TX

Home | Current Version | Previous Version | Text Only | Print | Product List | Glossary On
Versions: 1 2 3 4 5 6 7 8 9 10 11 12 13 14 15 16 17 18
091
FTUS44 KCRP 250258 AAA
TAFVCT
TAF AMD
KVCT 250258Z 2503/2524 01007KT P6SM VCSH SCT025 BKN250
      TEMPO 2503/2506 BKN025 OVC250
     FM250600 09004KT P6SM BKN015 OVC200
      TEMPO 2509/2512 5SM BR
     FM251500 09006KT P6SM VCSH BKN030
     FM251700 09010KT P6SM VCTS BKN040CB
      TEMPO 2518/2522 5SM TSRA OVC040CB
     FM252200 09012KT P6SM SCT040 BKN250=

USA.gov is the U.S. government's official web portal to all federal, state and local government web resources and services.